Time;durP1;ratioP1;P1;durP2;ratioP2;P2;SDS_P1;SDS_P2;PMS_P1;PMS_P2;Temp;Humidity;BMP_temperature;BMP_pressure;BME280_temperature;BME280_humidity;BME280_pressure;Samples;Min_cycle;Max_cycle;Signal;HPM_P1;HPM_P2
2023/10/19 00:02:08;;;;;;;24.90;17.05;;;8.80;99.90;;;;;;6174278;23;20614;-81
2023/10/19 00:04:37;;;;;;;22.88;16.23;;;8.80;99.90;;;;;;6174512;23;20017;-80
2023/10/19 00:07:06;;;;;;;24.70;17.40;;;8.80;99.90;;;;;;6174913;23;20397;-81
2023/10/19 00:09:38;;;;;;;20.80;16.15;;;8.80;99.90;;;;;;6173821;23;20020;-81
2023/10/19 00:12:09;;;;;;;22.95;16.73;;;8.80;99.90;;;;;;6173612;23;20315;-81
2023/10/19 00:14:35;;;;;;;24.33;16.77;;;8.80;99.90;;;;;;6148804;23;20029;-81
2023/10/19 00:17:05;;;;;;;22.55;16.63;;;8.80;99.90;;;;;;6148572;23;20314;-81
2023/10/19 00:19:37;;;;;;;26.02;16.60;;;8.90;99.90;;;;;;6148883;23;20016;-81
2023/10/19 00:22:08;;;;;;;27.00;16.20;;;8.80;99.90;;;;;;6147025;23;20378;-81
2023/10/19 00:24:34;;;;;;;24.73;16.98;;;8.80;99.90;;;;;;6173224;23;20318;-81
2023/10/19 00:27:10;;;;;;;26.20;17.30;;;8.90;99.90;;;;;;6173505;23;20020;-81
2023/10/19 00:29:40;;;;;;;25.58;17.20;;;8.90;99.90;;;;;;6148684;23;20024;-81
2023/10/19 00:32:14;;;;;;;23.98;17.40;;;8.80;99.90;;;;;;6148267;23;20139;-81
2023/10/19 00:34:39;;;;;;;29.30;17.73;;;8.90;99.90;;;;;;6147898;23;20035;-81
2023/10/19 00:37:09;;;;;;;24.10;17.83;;;8.80;99.90;;;;;;6172877;23;20028;-81
2023/10/19 00:39:43;;;;;;;24.08;18.02;;;8.80;99.90;;;;;;6172584;23;20437;-81
2023/10/19 00:42:09;;;;;;;23.80;17.75;;;8.90;99.90;;;;;;6172805;23;20478;-81
2023/10/19 00:44:42;;;;;;;26.08;18.08;;;8.90;99.90;;;;;;6172957;23;20615;-81
2023/10/19 00:47:16;;;;;;;23.92;17.70;;;8.90;99.90;;;;;;6149162;23;20021;-81
2023/10/19 00:49:48;;;;;;;25.70;18.88;;;8.90;99.90;;;;;;6174830;23;20103;-81
2023/10/19 00:52:19;;;;;;;25.73;18.27;;;8.90;99.90;;;;;;6151532;23;20143;-81
2023/10/19 00:57:19;;;;;;;26.55;19.08;;;8.90;99.90;;;;;;6175084;23;20090;-81
2023/10/19 00:59:54;;;;;;;27.35;17.67;;;8.90;99.90;;;;;;6152300;23;20476;-81
2023/10/19 01:02:21;;;;;;;27.43;17.93;;;8.80;99.90;;;;;;6151015;23;20013;-81
2023/10/19 01:05:05;;;;;;;24.88;17.90;;;8.90;99.90;;;;;;6152271;23;20015;-81
2023/10/19 01:07:33;;;;;;;27.05;19.50;;;8.90;99.90;;;;;;6152901;23;20008;-81
2023/10/19 01:10:03;;;;;;;27.58;19.23;;;8.90;99.90;;;;;;6150410;23;20040;-81
2023/10/19 01:17:57;;;;;;;27.80;19.52;;;9.00;99.90;;;;;;6176547;23;20021;-81
2023/10/19 01:28:26;;;;;;;27.20;19.67;;;9.00;99.90;;;;;;6173681;23;20020;-81
2023/10/19 01:30:52;;;;;;;25.42;19.27;;;8.90;99.90;;;;;;6174745;23;20044;-81
2023/10/19 01:33:18;;;;;;;28.98;20.35;;;9.00;99.90;;;;;;6176534;23;20027;-81
2023/10/19 01:38:33;;;;;;;28.63;20.30;;;9.00;99.90;;;;;;6177422;23;20393;-81
2023/10/19 01:41:13;;;;;;;28.98;20.20;;;9.00;99.90;;;;;;6175250;23;20016;-81
2023/10/19 01:43:40;;;;;;;29.50;20.00;;;9.00;99.90;;;;;;6176773;23;20012;-81
2023/10/19 01:46:11;;;;;;;27.70;20.15;;;9.00;99.90;;;;;;6175479;23;20373;-81
2023/10/19 01:48:41;;;;;;;26.50;20.42;;;9.00;99.90;;;;;;6176425;23;20078;-81
2023/10/19 01:51:11;;;;;;;25.98;20.27;;;9.00;99.90;;;;;;6150229;23;20048;-81
2023/10/19 01:53:44;;;;;;;29.20;22.73;;;9.00;99.90;;;;;;6175547;23;20031;-81
2023/10/19 01:56:14;;;;;;;28.23;21.33;;;9.10;99.90;;;;;;6149682;23;20146;-81
2023/10/19 01:58:41;;;;;;;30.17;22.30;;;9.00;99.90;;;;;;6176032;23;20017;-82
2023/10/19 02:03:43;;;;;;;27.88;21.27;;;9.00;99.90;;;;;;6177692;23;20016;-81
2023/10/19 02:06:16;;;;;;;25.10;20.70;;;9.00;99.90;;;;;;6152109;23;20013;-81
2023/10/19 02:08:48;;;;;;;29.45;21.30;;;9.10;99.90;;;;;;6152904;23;20043;-81
2023/10/19 02:11:18;;;;;;;26.88;20.52;;;9.10;99.90;;;;;;6151451;23;20079;-81
2023/10/19 02:13:49;;;;;;;27.98;21.02;;;9.10;99.90;;;;;;6151291;23;20068;-82
2023/10/19 02:16:25;;;;;;;28.03;21.30;;;9.10;99.90;;;;;;6152853;23;20030;-81
2023/10/19 02:18:52;;;;;;;29.25;21.52;;;9.00;99.90;;;;;;6151992;23;20021;-81
2023/10/19 02:21:30;;;;;;;25.88;20.05;;;9.10;99.90;;;;;;6151899;23;20025;-81
2023/10/19 02:23:57;;;;;;;27.67;20.52;;;9.10;99.90;;;;;;6176285;23;20322;-81
2023/10/19 02:26:26;;;;;;;25.10;19.50;;;9.00;99.90;;;;;;6151766;23;20436;-81
2023/10/19 02:28:52;;;;;;;24.42;19.63;;;9.10;99.90;;;;;;6176090;23;20009;-81
2023/10/19 02:31:21;;;;;;;24.90;19.38;;;9.20;99.90;;;;;;6176690;23;20740;-81
2023/10/19 02:33:51;;;;;;;25.77;20.08;;;9.10;99.90;;;;;;6152300;23;20023;-81
2023/10/19 02:36:20;;;;;;;25.33;19.90;;;9.10;99.90;;;;;;6176077;23;20019;-81
2023/10/19 02:38:51;;;;;;;27.27;20.30;;;9.10;99.90;;;;;;6151631;23;20146;-81
2023/10/19 02:41:17;;;;;;;24.30;18.58;;;9.10;99.90;;;;;;6151038;23;20028;-81
2023/10/19 02:43:47;;;;;;;24.55;18.83;;;9.10;99.90;;;;;;6150861;23;20015;-81
2023/10/19 02:46:13;;;;;;;26.30;18.33;;;9.20;99.90;;;;;;6151729;23;20070;-81
2023/10/19 02:48:44;;;;;;;24.98;17.70;;;9.20;99.90;;;;;;6177564;23;20489;-81
2023/10/19 02:51:13;;;;;;;23.60;18.05;;;9.20;99.90;;;;;;6176473;23;20155;-81
2023/10/19 02:53:42;;;;;;;27.95;17.55;;;9.10;99.90;;;;;;6152831;23;20012;-81
2023/10/19 02:56:19;;;;;;;24.08;16.65;;;9.20;99.90;;;;;;6150740;23;20017;-81
2023/10/19 02:58:49;;;;;;;21.92;16.73;;;9.30;99.90;;;;;;6151172;23;20019;-81
2023/10/19 03:01:24;;;;;;;21.05;15.60;;;9.20;99.90;;;;;;6151184;23;20017;-82
2023/10/19 03:03:54;;;;;;;20.90;15.75;;;9.30;99.90;;;;;;6151455;23;20012;-81
2023/10/19 03:06:21;;;;;;;20.77;16.00;;;9.20;99.90;;;;;;6150300;23;20017;-81
2023/10/19 03:08:52;;;;;;;19.58;15.40;;;9.20;99.90;;;;;;6150657;23;20016;-81
2023/10/19 03:11:19;;;;;;;22.83;16.60;;;9.20;99.90;;;;;;6175964;23;20066;-81
2023/10/19 03:13:44;;;;;;;18.45;14.60;;;9.20;99.90;;;;;;6150703;23;20454;-81
2023/10/19 03:16:10;;;;;;;19.95;14.93;;;9.30;99.90;;;;;;6175790;23;20085;-81
2023/10/19 03:18:36;;;;;;;21.02;16.08;;;9.30;99.90;;;;;;6151420;23;20292;-81
2023/10/19 03:21:05;;;;;;;21.15;16.02;;;9.30;99.90;;;;;;6151537;23;20114;-82
2023/10/19 03:23:34;;;;;;;18.70;14.93;;;9.30;99.90;;;;;;6176417;23;20023;-82
2023/10/19 03:28:45;;;;;;;18.88;15.02;;;9.30;99.90;;;;;;6173350;23;20024;-81
2023/10/19 03:31:17;;;;;;;20.85;15.77;;;9.40;99.90;;;;;;6148939;23;20445;-82
2023/10/19 03:33:49;;;;;;;20.00;15.32;;;9.40;99.90;;;;;;6149902;23;20032;-82
2023/10/19 03:36:15;;;;;;;19.08;14.30;;;9.30;99.90;;;;;;6173957;23;20060;-82
2023/10/19 03:38:41;;;;;;;19.52;15.45;;;9.40;99.90;;;;;;6174967;23;20463;-81
2023/10/19 03:41:10;;;;;;;16.92;14.00;;;9.40;99.90;;;;;;6147867;23;20017;-82
2023/10/19 03:43:40;;;;;;;19.70;15.13;;;9.40;99.90;;;;;;6174134;23;20004;-82
2023/10/19 03:46:19;;;;;;;17.80;14.10;;;9.40;99.90;;;;;;6148716;23;20608;-82
2023/10/19 03:48:46;;;;;;;17.83;13.05;;;9.50;99.90;;;;;;6174695;23;20489;-82
2023/10/19 03:51:13;;;;;;;17.55;14.18;;;9.50;99.90;;;;;;6150038;23;20036;-81
2023/10/19 03:53:43;;;;;;;16.60;13.05;;;9.50;99.90;;;;;;6149886;23;20071;-81
2023/10/19 03:56:11;;;;;;;17.00;12.73;;;9.50;99.90;;;;;;6172544;23;20016;-81
2023/10/19 03:58:38;;;;;;;18.02;14.27;;;9.50;99.90;;;;;;6172719;23;20013;-81
2023/10/19 04:01:05;;;;;;;18.75;14.80;;;9.50;99.90;;;;;;6147014;23;20299;-81
2023/10/19 04:03:31;;;;;;;17.92;14.13;;;9.50;99.90;;;;;;6148951;23;20019;-81
2023/10/19 04:06:00;;;;;;;18.13;13.57;;;9.50;99.90;;;;;;6172682;23;20393;-81
2023/10/19 04:08:26;;;;;;;19.95;13.60;;;9.50;99.90;;;;;;6173964;23;20020;-82
2023/10/19 04:11:48;;;;;;;16.52;13.18;;;9.50;99.90;;;;;;6146697;23;20205;-81
2023/10/19 04:13:41;;;;;;;16.17;12.55;;;9.50;99.90;;;;;;6161227;23;20027;-81
2023/10/19 04:16:09;;;;;;;18.17;13.85;;;9.50;99.90;;;;;;6173024;23;20095;-81
2023/10/19 04:18:39;;;;;;;17.52;13.18;;;9.60;99.90;;;;;;6173436;23;20052;-82
2023/10/19 04:21:05;;;;;;;16.70;13.00;;;9.60;99.90;;;;;;6172582;23;20021;-81
2023/10/19 04:23:34;;;;;;;17.48;12.63;;;9.60;99.90;;;;;;6174523;23;20489;-81
2023/10/19 04:26:05;;;;;;;15.55;12.55;;;9.50;99.90;;;;;;6172261;23;20092;-81
2023/10/19 04:28:31;;;;;;;14.77;12.15;;;9.60;99.90;;;;;;6173831;23;20282;-81
2023/10/19 04:31:02;;;;;;;13.18;11.05;;;9.60;99.90;;;;;;6174381;23;20361;-81
2023/10/19 04:33:30;;;;;;;16.33;12.30;;;9.50;99.90;;;;;;6174232;23;20017;-81
2023/10/19 04:35:56;;;;;;;16.63;12.68;;;9.60;99.90;;;;;;6173347;23;20016;-81
2023/10/19 04:38:25;;;;;;;13.55;11.77;;;9.60;99.90;;;;;;6149669;23;20088;-81
2023/10/19 04:40:50;;;;;;;14.20;11.30;;;9.60;99.90;;;;;;6172631;23;20044;-82
2023/10/19 04:43:21;;;;;;;13.70;10.85;;;9.70;99.90;;;;;;6149132;23;20016;-82
2023/10/19 04:45:47;;;;;;;15.10;11.90;;;9.60;99.90;;;;;;6174075;23;20139;-82
2023/10/19 04:48:12;;;;;;;14.20;11.60;;;9.70;99.90;;;;;;6149245;23;20044;-81
2023/10/19 04:50:39;;;;;;;13.38;10.85;;;9.70;99.90;;;;;;6173903;23;20016;-81
2023/10/19 04:53:05;;;;;;;13.07;10.50;;;9.70;99.90;;;;;;6149856;23;20086;-82
2023/10/19 04:55:31;;;;;;;12.32;9.65;;;9.70;99.90;;;;;;6172796;23;20017;-81
2023/10/19 04:57:56;;;;;;;13.75;10.30;;;9.70;99.90;;;;;;6173169;23;20009;-81
2023/10/19 05:00:24;;;;;;;13.55;10.27;;;9.70;99.90;;;;;;6174312;23;20076;-81
2023/10/19 05:02:51;;;;;;;12.18;10.18;;;9.80;99.90;;;;;;6147964;23;20013;-81
2023/10/19 05:05:18;;;;;;;11.77;10.32;;;9.70;99.90;;;;;;6148339;23;20012;-81
2023/10/19 05:07:44;;;;;;;12.05;10.27;;;9.80;99.90;;;;;;6173828;23;20031;-81
2023/10/19 05:10:11;;;;;;;12.38;10.30;;;9.70;99.90;;;;;;6172109;23;20025;-81
2023/10/19 05:12:37;;;;;;;11.52;9.88;;;9.70;99.90;;;;;;6174504;23;20032;-82
2023/10/19 05:15:04;;;;;;;12.73;10.30;;;9.70;99.90;;;;;;6149090;23;20028;-81
2023/10/19 05:17:31;;;;;;;11.45;9.45;;;9.70;99.90;;;;;;6148195;23;20070;-82
2023/10/19 05:19:57;;;;;;;11.43;9.73;;;9.60;99.90;;;;;;6154314;23;20334;-81
2023/10/19 05:22:24;;;;;;;10.85;8.85;;;9.70;99.90;;;;;;6119050;23;20013;-81
2023/10/19 05:24:50;;;;;;;10.75;8.93;;;9.70;99.90;;;;;;6117129;23;20024;-81
2023/10/19 05:27:17;;;;;;;10.43;8.82;;;9.60;99.90;;;;;;6118650;23;20017;-82
2023/10/19 05:29:43;;;;;;;9.75;8.38;;;9.70;99.90;;;;;;6117912;23;20017;-82
2023/10/19 05:32:09;;;;;;;10.57;8.10;;;9.70;99.90;;;;;;6119446;23;20087;-81
2023/10/19 05:34:35;;;;;;;11.10;9.40;;;9.70;99.90;;;;;;6120084;23;20132;-81
2023/10/19 05:37:05;;;;;;;10.20;8.68;;;9.60;99.90;;;;;;6121806;23;20335;-82
2023/10/19 05:39:33;;;;;;;8.23;6.28;;;9.70;99.90;;;;;;6120113;23;20019;-82
2023/10/19 05:42:00;;;;;;;8.48;6.47;;;9.70;99.90;;;;;;6119995;23;20065;-82
2023/10/19 05:44:30;;;;;;;8.85;7.03;;;9.80;99.90;;;;;;6119960;23;20416;-82
2023/10/19 05:46:56;;;;;;;8.52;6.63;;;9.70;99.90;;;;;;6144067;23;20107;-81
2023/10/19 05:49:23;;;;;;;9.05;6.72;;;9.80;99.90;;;;;;6119255;23;20216;-82
2023/10/19 05:51:52;;;;;;;7.65;6.40;;;9.80;99.90;;;;;;6120194;23;20187;-81
2023/10/19 05:54:18;;;;;;;7.82;5.88;;;9.70;99.90;;;;;;6143297;23;20071;-82
2023/10/19 05:56:44;;;;;;;9.02;6.25;;;9.70;99.90;;;;;;6119458;23;20017;-81
2023/10/19 05:59:11;;;;;;;6.97;6.05;;;9.70;99.90;;;;;;6119792;23;20020;-81
2023/10/19 06:01:37;;;;;;;7.68;6.72;;;9.70;99.90;;;;;;6120219;23;20013;-81
2023/10/19 06:04:03;;;;;;;9.05;6.05;;;9.70;99.90;;;;;;6120710;23;20541;-82
2023/10/19 06:06:29;;;;;;;8.20;6.35;;;9.80;99.90;;;;;;6145062;23;20080;-81
2023/10/19 06:08:55;;;;;;;7.75;6.28;;;9.80;99.90;;;;;;6119466;23;20017;-82
2023/10/19 06:11:21;;;;;;;7.28;5.80;;;9.70;99.90;;;;;;6145054;23;20335;-82
2023/10/19 06:13:47;;;;;;;8.20;6.32;;;9.70;99.90;;;;;;6119837;23;20021;-82
2023/10/19 06:16:14;;;;;;;7.72;6.38;;;9.80;99.90;;;;;;6144424;23;20095;-82
2023/10/19 06:18:40;;;;;;;8.23;6.60;;;9.80;99.90;;;;;;6123112;23;20017;-82
2023/10/19 06:21:05;;;;;;;7.55;6.05;;;9.70;99.90;;;;;;6174173;23;20024;-81
2023/10/19 06:23:31;;;;;;;7.90;6.18;;;9.70;99.90;;;;;;6151045;23;20012;-82
2023/10/19 06:25:59;;;;;;;7.28;5.55;;;9.80;99.90;;;;;;6148119;23;20449;-81
2023/10/19 06:28:25;;;;;;;6.60;5.53;;;9.80;99.90;;;;;;6151066;23;20364;-81
2023/10/19 06:30:51;;;;;;;8.73;5.90;;;9.80;99.90;;;;;;6176239;23;20017;-82
2023/10/19 06:33:17;;;;;;;7.13;5.15;;;9.70;99.90;;;;;;6174997;23;20070;-82
2023/10/19 06:35:42;;;;;;;6.80;5.43;;;9.80;99.90;;;;;;6150980;23;20020;-82
2023/10/19 06:38:09;;;;;;;6.32;5.00;;;9.80;99.90;;;;;;6151382;23;20088;-82
2023/10/19 06:40:38;;;;;;;7.00;5.30;;;9.80;99.90;;;;;;6149948;23;20088;-82
2023/10/19 06:43:06;;;;;;;5.90;4.65;;;9.80;99.90;;;;;;6150835;23;20016;-82
2023/10/19 06:45:33;;;;;;;6.88;5.03;;;9.90;99.90;;;;;;6175891;23;20017;-81
2023/10/19 06:48:03;;;;;;;5.80;4.68;;;9.80;99.90;;;;;;6175938;23;20334;-82
2023/10/19 06:50:30;;;;;;;5.40;4.22;;;9.90;99.90;;;;;;6150673;23;20097;-82
2023/10/19 06:52:55;;;;;;;5.72;4.55;;;9.90;99.90;;;;;;6176188;23;20017;-82
2023/10/19 06:55:21;;;;;;;6.05;4.47;;;9.80;99.90;;;;;;6175001;23;20009;-81
2023/10/19 06:57:52;;;;;;;6.32;4.47;;;9.90;99.90;;;;;;6150091;23;20385;-81
2023/10/19 07:00:21;;;;;;;5.13;3.92;;;9.90;99.90;;;;;;6151695;23;20091;-81
2023/10/19 07:02:48;;;;;;;5.70;4.55;;;9.90;99.90;;;;;;6175666;23;20489;-82
2023/10/19 07:05:18;;;;;;;6.00;4.65;;;9.90;99.90;;;;;;6175114;23;20013;-82
2023/10/19 07:07:44;;;;;;;5.65;4.28;;;9.90;99.90;;;;;;6151766;23;20112;-82
2023/10/19 07:10:14;;;;;;;4.20;3.70;;;9.90;99.90;;;;;;6174964;23;20070;-82
2023/10/19 07:12:42;;;;;;;4.97;3.90;;;10.00;99.90;;;;;;6175105;23;20016;-81
2023/10/19 07:15:09;;;;;;;5.60;3.53;;;9.90;99.90;;;;;;6151134;23;20016;-81
2023/10/19 07:17:37;;;;;;;4.70;3.67;;;10.00;99.90;;;;;;6150670;23;20085;-82
2023/10/19 07:20:05;;;;;;;4.70;3.67;;;10.10;99.90;;;;;;6150536;23;20028;-82
2023/10/19 07:22:38;;;;;;;5.90;3.80;;;10.10;99.90;;;;;;6176241;23;20008;-82
2023/10/19 07:25:06;;;;;;;4.65;3.90;;;10.10;99.90;;;;;;6149525;23;20013;-82
2023/10/19 07:27:33;;;;;;;4.70;3.70;;;10.10;99.90;;;;;;6151599;23;20095;-82
2023/10/19 07:30:00;;;;;;;4.40;3.72;;;10.20;99.90;;;;;;6175873;23;20028;-82
2023/10/19 07:32:26;;;;;;;4.63;3.55;;;10.20;99.90;;;;;;6151428;23;20024;-82
2023/10/19 07:34:52;;;;;;;4.60;3.58;;;10.20;99.90;;;;;;6151596;23;20048;-81
2023/10/19 07:37:17;;;;;;;3.75;2.90;;;10.20;99.90;;;;;;6176841;23;20051;-82
2023/10/19 07:39:47;;;;;;;3.80;2.88;;;10.10;99.90;;;;;;6175529;23;20043;-82
2023/10/19 07:42:17;;;;;;;4.70;3.63;;;10.20;99.90;;;;;;6176539;23;20015;-82
2023/10/19 07:44:42;;;;;;;4.38;3.35;;;10.20;99.90;;;;;;6151469;23;20323;-82
2023/10/19 07:47:12;;;;;;;5.63;3.70;;;10.20;99.90;;;;;;6176954;23;20162;-82
2023/10/19 07:49:41;;;;;;;4.43;3.45;;;10.20;99.90;;;;;;6151747;23;20020;-82
2023/10/19 07:52:07;;;;;;;4.90;3.50;;;10.10;99.90;;;;;;6151331;23;20016;-82
2023/10/19 07:54:35;;;;;;;4.65;3.35;;;10.30;99.90;;;;;;6175526;23;20091;-82
2023/10/19 07:57:07;;;;;;;4.90;4.05;;;10.20;99.90;;;;;;6151366;23;20044;-81
2023/10/19 07:59:33;;;;;;;4.80;3.67;;;10.20;99.90;;;;;;6175935;23;20027;-82
2023/10/19 08:02:02;;;;;;;4.53;3.88;;;10.20;99.90;;;;;;6175424;23;20012;-82
2023/10/19 08:04:28;;;;;;;5.55;3.90;;;10.20;99.90;;;;;;6175599;23;20454;-82
2023/10/19 08:06:55;;;;;;;4.20;3.80;;;10.30;99.90;;;;;;6175915;23;20528;-82
2023/10/19 08:09:26;;;;;;;5.07;3.83;;;10.20;99.90;;;;;;6149923;23;20013;-82
2023/10/19 08:11:55;;;;;;;4.63;3.80;;;10.30;99.90;;;;;;6150752;23;20031;-82
2023/10/19 08:14:24;;;;;;;4.50;3.67;;;10.30;99.90;;;;;;6174971;23;20336;-82
2023/10/19 08:16:50;;;;;;;6.70;4.60;;;10.20;99.90;;;;;;6150720;23;20016;-81
2023/10/19 08:19:16;;;;;;;6.05;4.45;;;10.20;99.90;;;;;;6150566;23;20013;-82
2023/10/19 08:21:42;;;;;;;5.55;4.20;;;10.20;99.90;;;;;;6150836;23;20023;-82
2023/10/19 08:24:13;;;;;;;4.88;3.92;;;10.30;99.90;;;;;;6175003;23;20497;-87
2023/10/19 08:26:41;;;;;;;5.63;4.32;;;10.30;99.90;;;;;;6175857;23;20383;-87
2023/10/19 08:29:12;;;;;;;4.95;4.15;;;10.20;99.90;;;;;;6175458;23;20021;-87
2023/10/19 08:31:40;;;;;;;5.88;4.30;;;10.30;99.90;;;;;;6150693;23;21026;-86
2023/10/19 08:34:06;;;;;;;5.28;4.28;;;10.20;99.90;;;;;;6150957;23;20016;-87
2023/10/19 08:36:31;;;;;;;5.22;3.92;;;10.20;99.90;;;;;;6176200;23;20024;-87
2023/10/19 08:38:57;;;;;;;4.93;4.18;;;10.30;99.90;;;;;;6150496;23;20393;-87
2023/10/19 08:41:23;;;;;;;5.88;4.38;;;10.20;99.90;;;;;;6150802;23;20044;-87
2023/10/19 08:43:50;;;;;;;4.88;3.92;;;10.30;99.90;;;;;;6175571;23;20433;-87
2023/10/19 08:46:17;;;;;;;4.95;4.15;;;10.30;99.90;;;;;;6149671;23;20097;-87
2023/10/19 08:48:42;;;;;;;5.82;4.68;;;10.40;99.90;;;;;;6176933;23;20629;-87
2023/10/19 08:51:12;;;;;;;5.05;4.50;;;10.40;99.90;;;;;;6150669;23;20440;-87
2023/10/19 08:53:41;;;;;;;5.53;4.50;;;10.50;99.90;;;;;;6176988;23;20450;-87
2023/10/19 08:56:08;;;;;;;5.40;4.50;;;10.50;99.90;;;;;;6149549;23;20458;-87
2023/10/19 08:58:34;;;;;;;6.72;4.80;;;10.50;99.90;;;;;;6150569;23;20438;-87
2023/10/19 09:01:06;;;;;;;5.43;4.47;;;10.50;99.90;;;;;;6150323;23;20050;-82
2023/10/19 09:03:32;;;;;;;5.57;4.32;;;10.50;99.90;;;;;;6176097;23;20009;-82
2023/10/19 09:06:05;;;;;;;6.05;4.60;;;10.60;99.90;;;;;;6150166;23;20023;-82
2023/10/19 09:08:40;;;;;;;5.85;4.88;;;10.60;99.90;;;;;;6177899;23;20035;-82
2023/10/19 09:11:13;;;;;;;7.15;4.88;;;10.60;99.90;;;;;;6150708;23;20466;-82
2023/10/19 09:13:49;;;;;;;7.53;5.28;;;10.70;99.90;;;;;;6177199;23;20013;-82
2023/10/19 09:16:20;;;;;;;5.60;4.80;;;10.60;99.90;;;;;;6177331;23;20059;-82
2023/10/19 09:18:47;;;;;;;5.90;4.88;;;10.60;99.90;;;;;;6176909;23;20020;-82
2023/10/19 09:21:25;;;;;;;6.63;5.28;;;10.70;99.90;;;;;;6152647;23;20087;-82
2023/10/19 09:23:53;;;;;;;8.05;5.25;;;10.70;99.90;;;;;;6151674;23;20019;-82
2023/10/19 09:26:19;;;;;;;7.30;5.35;;;10.70;99.90;;;;;;6176875;23;20087;-82
2023/10/19 09:28:50;;;;;;;6.88;4.97;;;10.70;99.90;;;;;;6151197;23;20020;-82
2023/10/19 09:31:16;;;;;;;8.88;6.10;;;10.70;99.90;;;;;;6151414;23;20667;-82
2023/10/19 09:33:46;;;;;;;6.32;5.15;;;10.80;99.90;;;;;;6177752;23;20024;-82
2023/10/19 09:36:13;;;;;;;7.13;5.65;;;10.90;99.90;;;;;;6151505;23;20017;-82
2023/10/19 09:38:43;;;;;;;7.13;5.40;;;10.80;99.90;;;;;;6177942;23;20078;-82
2023/10/19 09:41:12;;;;;;;7.95;5.75;;;10.90;99.90;;;;;;6150780;23;20005;-82
2023/10/19 09:43:41;;;;;;;7.50;5.20;;;11.00;99.90;;;;;;6152352;23;20005;-81
2023/10/19 09:46:08;;;;;;;7.72;5.47;;;11.00;99.90;;;;;;6151915;23;20078;-82
2023/10/19 09:48:47;;;;;;;6.95;5.20;;;10.90;99.90;;;;;;6152301;23;20016;-82
2023/10/19 09:51:13;;;;;;;7.93;5.40;;;11.00;99.90;;;;;;6152269;23;20012;-82
2023/10/19 09:53:40;;;;;;;6.57;5.30;;;11.10;99.90;;;;;;6177598;23;20020;-82
2023/10/19 09:56:15;;;;;;;7.18;5.05;;;11.10;99.90;;;;;;6151057;23;20028;-82
2023/10/19 09:58:46;;;;;;;8.02;5.60;;;11.20;99.90;;;;;;6176701;23;20040;-82
2023/10/19 10:01:12;;;;;;;7.97;5.60;;;11.30;99.90;;;;;;6176099;23;20469;-82
2023/10/19 10:03:53;;;;;;;7.60;5.07;;;11.30;99.90;;;;;;6152717;23;20012;-82
2023/10/19 10:06:30;;;;;;;7.45;5.30;;;11.40;99.90;;;;;;6176934;23;20016;-82
2023/10/19 10:08:59;;;;;;;7.22;4.97;;;11.20;99.90;;;;;;6151078;23;20017;-82
2023/10/19 10:11:26;;;;;;;6.97;5.40;;;11.30;99.90;;;;;;6151903;23;20038;-82
2023/10/19 10:13:53;;;;;;;7.20;5.25;;;11.30;99.90;;;;;;6151296;23;20453;-82
2023/10/19 10:16:21;;;;;;;7.05;5.38;;;11.30;99.90;;;;;;6152119;23;20079;-82
2023/10/19 10:18:50;;;;;;;7.05;5.15;;;11.30;99.90;;;;;;6151237;23;20016;-82
2023/10/19 10:21:24;;;;;;;7.38;5.07;;;11.30;99.90;;;;;;6151572;23;20347;-82
2023/10/19 10:23:55;;;;;;;8.37;5.33;;;11.40;99.90;;;;;;6177064;23;20012;-81
2023/10/19 10:26:25;;;;;;;9.05;5.95;;;11.40;99.90;;;;;;6151479;23;20212;-82
2023/10/19 10:29:22;;;;;;;7.93;5.88;;;11.40;99.90;;;;;;6151203;23;20280;-82
2023/10/19 10:31:49;;;;;;;7.88;5.97;;;11.40;99.90;;;;;;6151665;23;20056;-82
2023/10/19 10:34:33;;;;;;;8.63;6.50;;;11.40;99.90;;;;;;6151526;23;20017;-82
2023/10/19 10:37:02;;;;;;;10.30;6.65;;;11.40;99.90;;;;;;6176700;23;20292;-82
2023/10/19 10:39:28;;;;;;;7.38;5.80;;;11.30;99.90;;;;;;6176273;23;20015;-82
2023/10/19 10:42:05;;;;;;;8.93;5.90;;;11.40;99.90;;;;;;6176291;23;20533;-82
2023/10/19 10:44:42;;;;;;;9.13;5.90;;;11.50;99.90;;;;;;6127883;23;20110;-82
2023/10/19 10:47:11;;;;;;;7.28;5.68;;;11.40;99.90;;;;;;6151762;23;20016;-82
2023/10/19 10:49:48;;;;;;;8.63;6.55;;;11.60;99.90;;;;;;6151329;23;20022;-82
2023/10/19 10:52:33;;;;;;;7.70;5.95;;;11.40;99.90;;;;;;6177243;23;20104;-82
2023/10/19 10:55:10;;;;;;;10.15;6.57;;;11.40;99.90;;;;;;6175503;23;20028;-82
2023/10/19 10:57:37;;;;;;;8.10;5.90;;;11.50;99.90;;;;;;6176054;23;20043;-82
2023/10/19 11:00:15;;;;;;;10.45;5.82;;;11.60;99.90;;;;;;6176370;23;20020;-82
2023/10/19 11:02:49;;;;;;;7.63;5.88;;;11.50;99.90;;;;;;6151184;23;20028;-82
2023/10/19 11:05:18;;;;;;;8.30;6.83;;;11.70;99.90;;;;;;6175884;23;20017;-82
2023/10/19 11:08:13;;;;;;;9.15;6.32;;;11.80;99.90;;;;;;6151618;23;20043;-82
2023/10/19 11:10:42;;;;;;;10.25;6.93;;;11.70;99.90;;;;;;6149328;23;20020;-87
2023/10/19 11:13:17;;;;;;;10.68;6.68;;;11.70;99.90;;;;;;6175073;23;20460;-86
2023/10/19 11:15:58;;;;;;;10.32;6.28;;;11.60;99.90;;;;;;6150909;23;20103;-86
2023/10/19 11:18:42;;;;;;;7.22;5.80;;;11.70;99.90;;;;;;6149450;23;20083;-86
2023/10/19 11:21:14;;;;;;;7.25;6.07;;;11.50;99.90;;;;;;6174162;23;20426;-87
2023/10/19 11:23:52;;;;;;;7.78;6.00;;;11.60;99.90;;;;;;6150741;23;20381;-86
2023/10/19 11:26:20;;;;;;;8.20;5.93;;;11.60;99.90;;;;;;6174217;23;20023;-86
2023/10/19 11:28:54;;;;;;;8.32;6.22;;;11.50;99.90;;;;;;6149984;23;20016;-87
2023/10/19 11:31:23;;;;;;;10.05;5.90;;;11.60;99.90;;;;;;6150651;23;20748;-86
2023/10/19 11:33:50;;;;;;;6.38;5.40;;;11.60;99.90;;;;;;6151644;23;20020;-87
2023/10/19 11:36:21;;;;;;;7.60;5.82;;;11.50;99.90;;;;;;6175420;23;20067;-87
2023/10/19 11:38:49;;;;;;;6.50;5.50;;;11.50;99.90;;;;;;6175955;23;20017;-86
2023/10/19 11:41:16;;;;;;;6.85;5.57;;;11.60;99.90;;;;;;6149855;23;20028;-86
2023/10/19 11:43:43;;;;;;;7.30;5.22;;;11.60;99.90;;;;;;6175667;23;20023;-86
2023/10/19 11:46:11;;;;;;;7.63;6.00;;;11.50;99.90;;;;;;6151291;23;20021;-87
2023/10/19 11:48:39;;;;;;;9.30;6.07;;;11.50;99.90;;;;;;6151265;23;20563;-87
2023/10/19 11:51:06;;;;;;;9.10;5.70;;;11.50;99.90;;;;;;6151080;23;20220;-86
2023/10/19 11:53:37;;;;;;;7.47;6.07;;;11.50;99.90;;;;;;6176423;23;20265;-86
2023/10/19 11:56:05;;;;;;;7.18;6.10;;;11.50;99.90;;;;;;6174146;23;20027;-86
2023/10/19 11:58:35;;;;;;;8.63;5.68;;;11.50;99.90;;;;;;6150656;23;20012;-85
2023/10/19 12:01:05;;;;;;;9.55;6.15;;;11.50;99.90;;;;;;6150472;23;20016;-87
2023/10/19 12:03:31;;;;;;;6.05;4.72;;;11.60;99.90;;;;;;6176621;23;20055;-87
2023/10/19 12:05:57;;;;;;;7.82;4.85;;;11.80;99.90;;;;;;6175266;23;20108;-86
2023/10/19 12:08:23;;;;;;;8.05;5.50;;;11.80;99.90;;;;;;6175730;23;20020;-86
2023/10/19 12:10:50;;;;;;;8.48;5.50;;;11.70;99.90;;;;;;6149623;23;20063;-86
2023/10/19 12:13:17;;;;;;;7.00;5.75;;;11.90;99.90;;;;;;6149272;23;20535;-86
2023/10/19 12:15:51;;;;;;;7.75;5.72;;;11.80;99.90;;;;;;6174204;23;20074;-87
2023/10/19 12:18:20;;;;;;;7.65;5.07;;;11.60;99.90;;;;;;6149391;23;20092;-86
2023/10/19 12:20:47;;;;;;;6.38;5.35;;;11.60;99.90;;;;;;6149168;23;20017;-86
2023/10/19 12:23:13;;;;;;;6.85;5.60;;;11.50;99.90;;;;;;6150169;23;20589;-87
2023/10/19 12:25:39;;;;;;;9.68;5.63;;;11.40;99.90;;;;;;6172990;23;20012;-86
2023/10/19 12:28:05;;;;;;;10.40;5.88;;;11.40;99.90;;;;;;6175961;23;20092;-86
2023/10/19 12:30:38;;;;;;;8.45;5.50;;;11.40;99.90;;;;;;6176680;23;20012;-86
2023/10/19 12:33:11;;;;;;;9.88;6.78;;;11.30;99.90;;;;;;6151133;23;20050;-86
2023/10/19 12:35:51;;;;;;;8.25;6.95;;;11.30;99.90;;;;;;6151040;23;20055;-87
2023/10/19 12:38:17;;;;;;;8.95;6.55;;;11.30;99.90;;;;;;6151175;23;20204;-86
2023/10/19 12:40:44;;;;;;;10.27;6.97;;;11.40;99.90;;;;;;6149308;23;20431;-87
2023/10/19 12:43:10;;;;;;;7.07;5.80;;;11.50;99.90;;;;;;6174871;23;20040;-86
2023/10/19 12:45:37;;;;;;;8.43;6.18;;;11.50;99.90;;;;;;6175437;23;20291;-86
2023/10/19 12:48:10;;;;;;;10.68;6.43;;;11.50;99.90;;;;;;6175359;23;20024;-87
2023/10/19 12:50:37;;;;;;;8.95;6.25;;;11.60;99.90;;;;;;6150139;23;20004;-86
2023/10/19 12:53:03;;;;;;;9.65;6.47;;;11.50;99.90;;;;;;6149646;23;20013;-86
2023/10/19 12:55:30;;;;;;;8.82;6.35;;;11.60;99.90;;;;;;6148094;23;20012;-87
2023/10/19 12:57:57;;;;;;;9.98;6.85;;;11.60;99.90;;;;;;6149911;23;20031;-87
2023/10/19 13:00:28;;;;;;;8.25;6.15;;;11.40;99.90;;;;;;6175632;23;20127;-86
2023/10/19 13:03:03;;;;;;;9.00;6.28;;;11.50;99.90;;;;;;6175834;23;20058;-86
2023/10/19 13:05:33;;;;;;;9.55;6.00;;;11.40;99.90;;;;;;6175339;23;20111;-85
2023/10/19 13:07:58;;;;;;;7.78;5.72;;;11.40;99.90;;;;;;6176235;23;20448;-87
2023/10/19 13:10:34;;;;;;;8.55;5.40;;;11.40;99.90;;;;;;6174476;23;20087;-87
2023/10/19 13:13:05;;;;;;;8.45;5.60;;;11.40;99.90;;;;;;6150040;23;20086;-87
2023/10/19 13:15:36;;;;;;;12.48;5.57;;;11.30;99.90;;;;;;6150488;23;20012;-86
2023/10/19 13:18:02;;;;;;;6.80;5.35;;;11.30;99.90;;;;;;6150219;23;20092;-86